createdAt,value
2018-12-12T00:01:41.467Z,18.67
2018-12-12T00:04:11.072Z,23.10
2018-12-12T00:06:39.474Z,21.87
2018-12-12T00:09:07.943Z,21.73
2018-12-12T00:11:36.230Z,17.17
2018-12-12T00:14:04.558Z,19.70
2018-12-12T00:16:32.863Z,16.77
2018-12-12T00:19:01.167Z,15.33
2018-12-12T00:21:29.408Z,22.23
2018-12-12T00:23:57.650Z,21.73
2018-12-12T00:26:26.031Z,22.30
2018-12-12T00:28:55.309Z,20.63
2018-12-12T00:31:23.568Z,23.70
2018-12-12T00:33:51.865Z,15.37
2018-12-12T00:36:20.155Z,22.73
2018-12-12T00:38:48.366Z,21.43
2018-12-12T00:41:16.686Z,21.07
2018-12-12T00:43:44.958Z,23.80
2018-12-12T00:46:13.242Z,15.50
2018-12-12T00:48:41.475Z,17.70
2018-12-12T00:51:09.710Z,17.87
2018-12-12T00:53:38.179Z,22.00
2018-12-12T00:56:06.435Z,20.00
2018-12-12T00:58:34.725Z,23.20
2018-12-12T01:01:02.922Z,19.10
2018-12-12T01:03:31.157Z,24.80
2018-12-12T01:05:59.606Z,20.80
2018-12-12T01:08:27.849Z,24.60
2018-12-12T01:11:01.362Z,20.50
2018-12-12T01:13:29.590Z,24.87
2018-12-12T01:15:57.817Z,19.77
2018-12-12T01:18:27.086Z,25.97
2018-12-12T01:20:55.467Z,23.93
2018-12-12T01:23:23.678Z,23.13
2018-12-12T01:25:51.937Z,22.10
2018-12-12T01:28:20.190Z,25.57
2018-12-12T01:30:48.446Z,20.80
2018-12-12T01:33:16.730Z,18.63
2018-12-12T01:35:45.196Z,21.30
2018-12-12T01:38:13.506Z,20.67
2018-12-12T01:40:41.816Z,23.97
2018-12-12T01:43:10.155Z,24.07
2018-12-12T01:45:38.399Z,27.60
2018-12-12T01:48:06.690Z,33.17
2018-12-12T01:50:35.028Z,29.67
2018-12-12T01:53:04.101Z,23.07
2018-12-12T01:55:32.494Z,35.50
2018-12-12T01:58:00.695Z,20.60
2018-12-12T02:00:29.027Z,21.63
2018-12-12T02:02:57.360Z,23.60
2018-12-12T02:05:25.774Z,21.77
2018-12-12T02:08:00.659Z,22.33
2018-12-12T02:10:28.874Z,20.70
2018-12-12T02:13:08.840Z,25.27
2018-12-12T02:15:37.119Z,20.83
2018-12-12T02:18:05.315Z,20.90
2018-12-12T02:20:33.540Z,23.87
2018-12-12T02:23:01.763Z,24.30
2018-12-12T02:25:30.047Z,18.73
2018-12-12T02:27:58.305Z,22.87
2018-12-12T02:30:26.691Z,28.60
2018-12-12T02:32:54.923Z,22.57
2018-12-12T02:35:23.267Z,23.23
2018-12-12T02:37:51.578Z,30.63
2018-12-12T02:40:19.983Z,27.63
2018-12-12T02:42:48.266Z,27.17
2018-12-12T02:45:16.566Z,28.43
2018-12-12T02:47:44.877Z,22.70
2018-12-12T02:50:13.387Z,19.67
2018-12-12T02:52:41.693Z,25.03
2018-12-12T02:55:13.771Z,23.07
2018-12-12T02:57:42.099Z,24.80
2018-12-12T03:00:10.435Z,30.27
2018-12-12T03:02:38.699Z,26.73
2018-12-12T03:05:07.133Z,21.37
2018-12-12T03:07:35.385Z,26.00
2018-12-12T03:10:04.182Z,18.53
2018-12-12T03:12:32.411Z,26.27
2018-12-12T03:15:00.614Z,23.93
2018-12-12T03:17:28.832Z,23.47
2018-12-12T03:19:57.136Z,24.47
2018-12-12T03:22:25.781Z,21.80
2018-12-12T03:24:53.987Z,21.53
2018-12-12T03:27:22.183Z,22.73
2018-12-12T03:29:51.022Z,28.40
2018-12-12T03:32:19.314Z,27.27
2018-12-12T03:34:47.613Z,25.70
2018-12-12T03:37:15.944Z,25.97
2018-12-12T03:39:44.164Z,25.30
2018-12-12T03:42:12.657Z,26.80
2018-12-12T03:44:40.882Z,29.13
2018-12-12T03:47:09.181Z,29.97
2018-12-12T03:49:37.499Z,27.20
2018-12-12T03:52:05.930Z,21.30
2018-12-12T03:54:34.686Z,23.73
2018-12-12T03:57:02.887Z,32.60
2018-12-12T03:59:31.164Z,25.23
2018-12-12T04:01:59.595Z,24.50
2018-12-12T04:04:27.887Z,30.30
2018-12-12T04:06:56.318Z,27.43
2018-12-12T04:09:24.599Z,31.50
2018-12-12T04:11:52.780Z,29.77
2018-12-12T04:14:20.999Z,29.23
2018-12-12T04:16:49.266Z,26.47
2018-12-12T04:19:17.774Z,28.27
2018-12-12T04:21:46.022Z,23.53
2018-12-12T04:24:14.910Z,22.17
2018-12-12T04:26:43.197Z,30.13
2018-12-12T04:29:11.507Z,25.67
2018-12-12T04:31:39.753Z,27.40
2018-12-12T04:34:07.952Z,26.83
2018-12-12T04:36:36.190Z,24.90
2018-12-12T04:39:10.683Z,27.07
2018-12-12T04:41:48.091Z,28.53
2018-12-12T04:44:28.160Z,32.37
2018-12-12T04:46:58.331Z,25.13
2018-12-12T04:49:30.342Z,29.47
2018-12-12T04:52:00.472Z,35.13
2018-12-12T04:54:41.330Z,29.90
2018-12-12T04:57:22.372Z,30.33
2018-12-12T04:59:56.698Z,31.87
2018-12-12T05:02:28.063Z,29.27
2018-12-12T05:05:08.633Z,27.90
2018-12-12T05:07:48.897Z,29.13
2018-12-12T05:10:19.119Z,25.13
2018-12-12T05:12:50.574Z,27.77
2018-12-12T05:15:22.088Z,32.40
2018-12-12T05:17:54.220Z,37.13
2018-12-12T05:20:25.502Z,32.08
2018-12-12T05:23:05.879Z,31.57
2018-12-12T05:25:38.052Z,24.40
2018-12-12T05:28:18.222Z,27.60
2018-12-12T05:33:43.581Z,30.30
2018-12-12T05:36:11.779Z,27.37
2018-12-12T05:38:40.012Z,29.83
2018-12-12T05:41:08.223Z,27.87
2018-12-12T05:43:36.487Z,28.57
2018-12-12T05:46:04.775Z,28.53
2018-12-12T05:48:33.110Z,26.63
2018-12-12T05:51:05.110Z,26.87
2018-12-12T05:53:33.408Z,24.93
2018-12-12T05:56:02.648Z,27.07
2018-12-12T05:58:30.996Z,30.43
2018-12-12T06:01:02.779Z,28.30
2018-12-12T06:03:31.075Z,29.37
2018-12-12T06:05:59.382Z,26.70
2018-12-12T06:08:45.862Z,31.17
2018-12-12T06:11:16.164Z,25.40
2018-12-12T06:13:44.559Z,31.20
2018-12-12T06:16:12.783Z,29.10
2018-12-12T06:18:42.079Z,29.53
2018-12-12T06:24:19.395Z,29.27
2018-12-12T06:26:53.883Z,26.93
2018-12-12T06:29:28.389Z,29.87
2018-12-12T06:32:09.046Z,33.90
2018-12-12T06:34:45.311Z,30.40
2018-12-12T06:37:25.671Z,30.43
2018-12-12T06:39:55.876Z,35.48
2018-12-12T06:42:27.530Z,28.33
2018-12-12T06:45:01.700Z,31.02
2018-12-12T06:50:31.050Z,28.47
2018-12-12T06:53:08.959Z,30.73
2018-12-12T06:55:44.694Z,33.40
2018-12-12T07:01:17.741Z,26.60
2018-12-12T07:03:49.067Z,32.37
2018-12-12T07:06:19.250Z,27.00
2018-12-12T07:08:59.719Z,31.67
2018-12-12T07:11:29.135Z,28.20
2018-12-12T07:19:12.298Z,31.87
2018-12-12T07:21:46.639Z,30.63
2018-12-12T07:24:27.218Z,30.33
2018-12-12T07:29:56.267Z,39.20
2018-12-12T07:32:28.195Z,29.93
2018-12-12T07:35:00.290Z,33.73
2018-12-12T07:37:34.498Z,27.63
2018-12-12T07:40:09.194Z,33.57
2018-12-12T07:42:40.675Z,33.00
2018-12-12T07:45:12.931Z,29.30
2018-12-12T07:47:45.055Z,29.93
2018-12-12T07:50:17.298Z,25.17
2018-12-12T07:52:47.559Z,40.60
2018-12-12T07:55:19.636Z,26.70
2018-12-12T07:57:51.774Z,27.33
2018-12-12T08:00:32.307Z,31.90
2018-12-12T08:03:06.364Z,29.87
2018-12-12T08:05:37.476Z,26.87
2018-12-12T08:08:10.138Z,26.43
2018-12-12T08:10:48.223Z,30.43
2018-12-12T08:13:22.844Z,31.03
2018-12-12T08:16:02.771Z,28.17
2018-12-12T08:21:09.834Z,27.90
2018-12-12T08:23:41.569Z,28.17
2018-12-12T08:26:15.283Z,29.07
2018-12-12T08:28:52.665Z,30.40
2018-12-12T08:31:21.990Z,31.10
2018-12-12T08:33:56.603Z,29.77
2018-12-12T08:36:32.767Z,29.23
2018-12-12T08:39:03.519Z,24.37
2018-12-12T08:41:35.193Z,26.27
2018-12-12T08:44:09.566Z,26.97
2018-12-12T08:46:41.321Z,22.47
2018-12-12T08:49:12.577Z,27.33
2018-12-12T08:51:43.896Z,25.80
2018-12-12T08:54:16.059Z,25.07
2018-12-12T08:56:48.125Z,21.77
2018-12-12T08:59:22.620Z,28.20
2018-12-12T09:01:56.472Z,23.90
2018-12-12T09:04:33.013Z,21.80
2018-12-12T09:07:09.062Z,24.97
2018-12-12T09:09:43.335Z,27.13
2018-12-12T09:12:17.306Z,29.43
2018-12-12T09:14:49.170Z,24.73
2018-12-12T09:17:27.747Z,22.27
2018-12-12T09:20:12.245Z,26.43
2018-12-12T09:22:49.912Z,24.43
2018-12-12T09:25:28.074Z,22.60
2018-12-12T09:28:02.242Z,21.40
2018-12-12T09:30:42.739Z,24.13
2018-12-12T09:33:17.342Z,27.47
2018-12-12T09:35:48.612Z,22.30
2018-12-12T09:38:20.050Z,25.93
2018-12-12T09:41:01.243Z,23.23
2018-12-12T09:43:43.663Z,22.20
2018-12-12T09:46:15.703Z,25.63
2018-12-12T09:48:48.577Z,22.90
2018-12-12T09:51:25.480Z,24.17
2018-12-12T09:53:57.768Z,25.17
2018-12-12T09:56:38.728Z,22.13
2018-12-12T09:59:17.437Z,22.63
2018-12-12T10:01:55.411Z,24.73
2018-12-12T10:04:27.618Z,20.00
2018-12-12T10:06:57.310Z,26.47
2018-12-12T10:09:28.935Z,23.37
2018-12-12T10:11:59.097Z,23.70
2018-12-12T10:14:31.195Z,19.80
2018-12-12T10:17:07.626Z,20.60
2018-12-12T10:19:48.160Z,20.83
2018-12-12T10:22:19.911Z,17.47
2018-12-12T10:25:02.221Z,21.63
2018-12-12T10:27:34.477Z,23.20
2018-12-12T10:30:06.760Z,20.73
2018-12-12T10:32:41.066Z,20.60
2018-12-12T10:35:11.033Z,20.20
2018-12-12T10:37:42.339Z,20.17
2018-12-12T10:43:13.796Z,23.90
2018-12-12T10:45:45.286Z,17.27
2018-12-12T10:48:21.875Z,19.77
2018-12-12T10:50:53.480Z,19.17
2018-12-12T10:53:28.078Z,20.03
2018-12-12T10:56:08.677Z,21.47
2018-12-12T10:58:41.027Z,25.73
2018-12-12T11:01:20.382Z,16.73
2018-12-12T11:03:53.706Z,19.23
2018-12-12T11:06:23.752Z,19.17
2018-12-12T11:08:55.047Z,15.67
2018-12-12T11:14:19.416Z,17.77
2018-12-12T11:16:53.106Z,19.27
2018-12-12T11:19:21.322Z,16.30
2018-12-12T11:22:13.894Z,17.40
2018-12-12T11:27:26.732Z,16.50
2018-12-12T11:30:00.423Z,18.10
2018-12-12T11:32:38.394Z,17.50
2018-12-12T11:35:12.384Z,18.27
2018-12-12T11:37:46.583Z,22.63
2018-12-12T11:40:18.377Z,17.43
2018-12-12T11:42:50.247Z,23.47
2018-12-12T11:45:26.090Z,24.53
2018-12-12T11:47:59.659Z,20.20
2018-12-12T11:50:31.747Z,21.00
2018-12-12T11:56:15.743Z,18.60
2018-12-12T11:58:47.716Z,18.70
2018-12-12T12:01:17.835Z,22.93
2018-12-12T12:03:49.362Z,19.27
2018-12-12T12:06:23.468Z,20.67
2018-12-12T12:08:55.205Z,22.80
2018-12-12T12:11:29.654Z,18.70
2018-12-12T12:14:09.826Z,21.30
2018-12-12T12:16:49.680Z,18.07
2018-12-12T12:19:21.451Z,20.97
2018-12-12T12:21:59.692Z,17.33
2018-12-12T12:33:29.168Z,14.63
2018-12-12T12:36:00.736Z,16.10
2018-12-12T12:38:35.797Z,18.13
2018-12-12T12:41:10.965Z,17.20
2018-12-12T12:46:56.842Z,20.23
2018-12-12T12:55:41.034Z,18.97
2018-12-12T12:58:13.203Z,19.20
2018-12-12T13:10:11.348Z,18.20
2018-12-12T13:15:39.526Z,17.97
2018-12-12T13:21:21.605Z,21.70
2018-12-12T13:23:49.855Z,18.27
2018-12-12T13:26:26.894Z,19.83
2018-12-12T13:29:03.207Z,20.60
2018-12-12T13:31:32.577Z,21.70
2018-12-12T13:34:00.990Z,17.70
2018-12-12T13:36:29.538Z,16.90
2018-12-12T13:39:10.187Z,17.43
2018-12-12T13:41:54.901Z,19.73
2018-12-12T13:44:29.020Z,19.13
2018-12-12T13:46:57.234Z,17.33
2018-12-12T13:49:38.731Z,19.70
2018-12-12T13:52:07.015Z,16.20
2018-12-12T13:54:41.027Z,19.30
2018-12-12T14:00:18.977Z,19.27
2018-12-12T14:02:55.012Z,22.90
2018-12-12T14:05:33.427Z,18.80
2018-12-12T14:08:11.234Z,28.27
2018-12-12T14:10:52.109Z,20.33
2018-12-12T14:13:23.736Z,20.87
2018-12-12T14:18:55.775Z,20.03
2018-12-12T14:30:55.215Z,21.00
2018-12-12T14:51:57.964Z,20.47
2018-12-12T15:00:51.513Z,20.53
2018-12-12T15:03:36.036Z,21.63
2018-12-12T15:06:17.016Z,19.57
2018-12-12T15:09:00.736Z,18.77
2018-12-12T15:11:33.171Z,22.37
2018-12-12T15:14:13.647Z,18.93
2018-12-12T15:16:54.515Z,20.60
2018-12-12T15:19:43.501Z,22.30
2018-12-12T15:22:20.018Z,20.90
2018-12-12T15:24:57.930Z,21.57
2018-12-12T15:27:31.819Z,22.13
2018-12-12T15:30:04.087Z,25.00
2018-12-12T15:32:51.087Z,22.57
2018-12-12T15:35:27.421Z,19.63
2018-12-12T15:38:05.734Z,21.20
2018-12-12T15:40:44.278Z,24.97
2018-12-12T15:43:22.465Z,19.07
2018-12-12T15:46:00.689Z,23.20
2018-12-12T15:48:36.907Z,23.47
2018-12-12T15:57:11.454Z,29.07
2018-12-12T15:59:56.250Z,26.27
2018-12-12T16:02:32.873Z,21.00
2018-12-12T16:05:09.284Z,21.73
2018-12-12T16:07:45.456Z,23.80
2018-12-12T16:10:21.755Z,24.73
2018-12-12T16:13:00.131Z,25.63
2018-12-12T16:15:38.088Z,30.73
2018-12-12T16:18:10.831Z,27.47
2018-12-12T16:23:47.865Z,28.30
2018-12-12T16:29:26.945Z,23.10
2018-12-12T16:32:04.916Z,27.60
2018-12-12T16:37:52.345Z,21.50
2018-12-12T16:40:30.106Z,22.43
2018-12-12T16:43:06.405Z,22.90
2018-12-12T16:45:42.581Z,22.17
2018-12-12T16:48:18.716Z,24.73
2018-12-12T16:50:55.100Z,26.07
2018-12-12T16:53:31.310Z,24.30
2018-12-12T16:56:03.055Z,22.80
2018-12-12T16:58:48.791Z,24.10
2018-12-12T17:01:18.637Z,25.57
2018-12-12T17:06:51.380Z,27.37
2018-12-12T17:09:23.536Z,21.03
2018-12-12T17:11:58.071Z,21.50
2018-12-12T17:14:29.695Z,24.17
2018-12-12T17:17:01.956Z,20.30
2018-12-12T17:19:34.119Z,20.10
2018-12-12T17:22:06.286Z,19.27
2018-12-12T17:24:40.062Z,22.97
2018-12-12T17:27:11.930Z,19.63
2018-12-12T17:29:43.843Z,18.90
2018-12-12T17:32:16.459Z,21.70
2018-12-12T17:34:51.136Z,22.20
2018-12-12T17:37:26.627Z,21.40
2018-12-12T17:40:00.787Z,19.80
2018-12-12T17:42:46.400Z,24.90
2018-12-12T17:45:21.970Z,24.63
2018-12-12T17:51:01.225Z,24.67
2018-12-12T17:59:53.049Z,21.40
2018-12-12T18:02:29.489Z,21.43
2018-12-12T18:05:05.881Z,22.67
2018-12-12T18:07:48.004Z,23.27
2018-12-12T18:10:24.978Z,21.80
2018-12-12T18:16:08.667Z,22.90
2018-12-12T18:21:39.895Z,21.63
2018-12-12T18:24:09.186Z,26.00
2018-12-12T18:26:37.564Z,24.60
2018-12-12T18:29:06.908Z,25.80
2018-12-12T18:31:35.263Z,24.93
2018-12-12T18:34:07.192Z,23.63
2018-12-12T18:36:39.816Z,21.20
2018-12-12T18:39:08.356Z,21.17
2018-12-12T18:41:36.626Z,21.47
2018-12-12T18:44:04.920Z,20.33
2018-12-12T18:46:33.370Z,26.50
2018-12-12T18:49:01.852Z,25.27
2018-12-12T18:51:30.201Z,24.27
2018-12-12T18:53:58.455Z,20.67
2018-12-12T18:56:26.751Z,25.77
2018-12-12T18:58:55.158Z,23.83
2018-12-12T19:01:23.503Z,26.47
2018-12-12T19:03:52.070Z,20.83
2018-12-12T19:06:20.375Z,20.37
2018-12-12T19:08:48.795Z,21.17
2018-12-12T19:11:18.202Z,22.63
2018-12-12T19:13:46.641Z,21.27
2018-12-12T19:16:20.515Z,26.50
2018-12-12T19:18:48.850Z,20.07
2018-12-12T19:21:17.246Z,20.40
2018-12-12T19:23:45.624Z,21.13
2018-12-12T19:26:19.464Z,23.27
2018-12-12T19:28:49.812Z,20.97
2018-12-12T19:31:19.410Z,23.40
2018-12-12T19:33:53.480Z,19.63
2018-12-12T19:39:28.817Z,20.97
2018-12-12T19:42:01.086Z,23.20
2018-12-12T19:47:41.085Z,21.57
2018-12-12T19:50:18.310Z,22.80
2018-12-12T19:55:47.034Z,22.70
2018-12-12T19:58:19.505Z,24.87
2018-12-12T20:01:06.274Z,26.50
2018-12-12T20:09:51.671Z,26.13
2018-12-12T20:21:21.891Z,28.83
2018-12-12T20:26:54.840Z,25.53
2018-12-12T20:29:26.214Z,28.43
2018-12-12T20:32:00.531Z,22.93
2018-12-12T20:34:47.299Z,23.17
2018-12-12T20:37:26.566Z,23.65
2018-12-12T20:40:13.594Z,20.93
2018-12-12T20:42:59.299Z,22.47
2018-12-12T20:57:21.471Z,21.40
2018-12-12T20:59:50.322Z,20.57
2018-12-12T21:02:21.750Z,22.63
2018-12-12T21:04:51.182Z,24.00
2018-12-12T21:07:19.387Z,24.10
2018-12-12T21:09:47.632Z,22.57
2018-12-12T21:12:15.870Z,22.73
2018-12-12T21:14:44.063Z,23.83
2018-12-12T21:17:12.458Z,24.07
2018-12-12T21:19:40.732Z,21.77
2018-12-12T21:22:08.999Z,23.17
2018-12-12T21:24:37.258Z,20.90
2018-12-12T21:27:06.694Z,21.87
2018-12-12T21:29:36.216Z,22.33
2018-12-12T21:32:04.603Z,23.00
2018-12-12T21:34:32.860Z,25.90
2018-12-12T21:37:01.143Z,26.07
2018-12-12T21:39:29.371Z,22.27
2018-12-12T21:41:57.667Z,27.17
2018-12-12T21:44:25.958Z,25.10
2018-12-12T21:46:55.861Z,19.97
2018-12-12T21:49:24.132Z,24.50
2018-12-12T21:51:52.426Z,22.93
2018-12-12T21:54:20.643Z,24.43
2018-12-12T21:56:48.822Z,22.77
2018-12-12T21:59:17.377Z,23.03
2018-12-12T22:01:45.651Z,24.23
2018-12-12T22:04:13.834Z,23.07
2018-12-12T22:06:42.054Z,25.40
2018-12-12T22:09:11.774Z,23.20
2018-12-12T22:11:41.059Z,22.87
2018-12-12T22:14:09.270Z,25.97
2018-12-12T22:16:37.471Z,23.73
2018-12-12T22:19:05.753Z,22.20
2018-12-12T22:21:33.966Z,22.53
2018-12-12T22:24:02.188Z,22.90
2018-12-12T22:26:30.413Z,25.70
2018-12-12T22:28:58.668Z,25.23
2018-12-12T22:31:26.870Z,21.57
2018-12-12T22:33:55.210Z,23.97
2018-12-12T22:36:23.403Z,22.00
2018-12-12T22:38:51.700Z,20.83
2018-12-12T22:41:19.973Z,21.20
2018-12-12T22:43:48.394Z,23.03
2018-12-12T22:46:16.603Z,24.03
2018-12-12T22:48:44.855Z,20.77
2018-12-12T22:51:13.078Z,20.90
2018-12-12T22:53:41.412Z,21.50
2018-12-12T22:56:09.635Z,22.47
2018-12-12T22:58:37.828Z,21.67
2018-12-12T23:01:10.362Z,21.20
2018-12-12T23:03:39.740Z,22.23
2018-12-12T23:06:08.236Z,25.17
2018-12-12T23:08:36.531Z,22.30
2018-12-12T23:11:04.844Z,21.63
2018-12-12T23:13:33.020Z,22.47
2018-12-12T23:16:01.373Z,23.53
2018-12-12T23:18:29.643Z,25.63
2018-12-12T23:20:58.066Z,20.33
2018-12-12T23:23:26.439Z,23.83
2018-12-12T23:25:54.622Z,22.30
2018-12-12T23:28:22.835Z,21.90
2018-12-12T23:30:51.016Z,21.97
2018-12-12T23:33:19.309Z,22.10
2018-12-12T23:35:47.478Z,20.93
2018-12-12T23:38:15.662Z,19.40
2018-12-12T23:40:43.851Z,20.87
2018-12-12T23:43:12.043Z,22.50
2018-12-12T23:45:40.254Z,21.43
2018-12-12T23:48:08.462Z,20.97
2018-12-12T23:50:36.655Z,19.30
2018-12-12T23:53:04.847Z,21.00
2018-12-12T23:55:33.068Z,22.17
2018-12-12T23:58:02.135Z,20.40
